sensor_id;sensor_type;location;lat;lon;timestamp;P1;durP1;ratioP1;P2;durP2;ratioP2
6499;SDS011;3283;52.330;9.772;2023-07-13T04:03:18;586.67;;;282.83;;
6499;SDS011;3283;52.330;9.772;2023-07-13T04:05:43;587.00;;;278.90;;
6499;SDS011;3283;52.330;9.772;2023-07-13T04:08:09;614.73;;;332.47;;
6499;SDS011;3283;52.330;9.772;2023-07-13T04:10:34;597.17;;;300.47;;
6499;SDS011;3283;52.330;9.772;2023-07-13T04:12:59;605.23;;;343.37;;
6499;SDS011;3283;52.330;9.772;2023-07-13T04:15:25;599.60;;;317.20;;
6499;SDS011;3283;52.330;9.772;2023-07-13T04:17:52;612.93;;;378.77;;
6499;SDS011;3283;52.330;9.772;2023-07-13T04:20:18;609.87;;;369.13;;
6499;SDS011;3283;52.330;9.772;2023-07-13T04:22:45;609.40;;;348.17;;
6499;SDS011;3283;52.330;9.772;2023-07-13T04:25:11;607.23;;;345.53;;
6499;SDS011;3283;52.330;9.772;2023-07-13T04:27:36;613.20;;;388.53;;
6499;SDS011;3283;52.330;9.772;2023-07-13T04:30:01;610.23;;;385.27;;
6499;SDS011;3283;52.330;9.772;2023-07-13T04:32:27;620.17;;;398.80;;
6499;SDS011;3283;52.330;9.772;2023-07-13T04:34:52;607.40;;;361.03;;
6499;SDS011;3283;52.330;9.772;2023-07-13T04:37:20;616.87;;;371.37;;
6499;SDS011;3283;52.330;9.772;2023-07-13T04:39:46;635.07;;;434.97;;
6499;SDS011;3283;52.330;9.772;2023-07-13T04:42:11;638.87;;;435.70;;
6499;SDS011;3283;52.330;9.772;2023-07-13T04:44:37;611.63;;;373.00;;
6499;SDS011;3283;52.330;9.772;2023-07-13T04:47:02;622.60;;;406.17;;
6499;SDS011;3283;52.330;9.772;2023-07-13T04:49:28;609.43;;;368.90;;
6499;SDS011;3283;52.330;9.772;2023-07-13T04:51:53;616.33;;;384.37;;
6499;SDS011;3283;52.330;9.772;2023-07-13T04:54:19;615.50;;;400.20;;
6499;SDS011;3283;52.330;9.772;2023-07-13T04:56:45;624.07;;;411.83;;
6499;SDS011;3283;52.330;9.772;2023-07-13T04:59:10;614.93;;;408.47;;
6499;SDS011;3283;52.330;9.772;2023-07-13T05:01:35;626.23;;;390.07;;
6499;SDS011;3283;52.330;9.772;2023-07-13T05:04:01;614.27;;;373.30;;
6499;SDS011;3283;52.330;9.772;2023-07-13T05:06:26;608.63;;;371.93;;
6499;SDS011;3283;52.330;9.772;2023-07-13T05:08:52;614.13;;;381.77;;
6499;SDS011;3283;52.330;9.772;2023-07-13T05:11:17;612.53;;;401.43;;
6499;SDS011;3283;52.330;9.772;2023-07-13T05:13:43;618.50;;;401.37;;
6499;SDS011;3283;52.330;9.772;2023-07-13T05:16:08;615.43;;;376.70;;
6499;SDS011;3283;52.330;9.772;2023-07-13T05:18:34;621.20;;;416.53;;
6499;SDS011;3283;52.330;9.772;2023-07-13T05:21:04;616.00;;;387.63;;
6499;SDS011;3283;52.330;9.772;2023-07-13T05:23:32;619.37;;;416.37;;
6499;SDS011;3283;52.330;9.772;2023-07-13T05:25:58;615.27;;;383.53;;
6499;SDS011;3283;52.330;9.772;2023-07-13T05:28:24;626.93;;;429.37;;
6499;SDS011;3283;52.330;9.772;2023-07-13T05:30:51;624.37;;;421.73;;
6499;SDS011;3283;52.330;9.772;2023-07-13T05:33:17;623.83;;;431.70;;
6499;SDS011;3283;52.330;9.772;2023-07-13T05:35:42;619.73;;;393.83;;
6499;SDS011;3283;52.330;9.772;2023-07-13T05:38:08;622.40;;;428.03;;
6499;SDS011;3283;52.330;9.772;2023-07-13T05:40:33;629.53;;;448.77;;
6499;SDS011;3283;52.330;9.772;2023-07-13T05:42:58;629.07;;;443.53;;
6499;SDS011;3283;52.330;9.772;2023-07-13T05:45:24;618.47;;;403.97;;
6499;SDS011;3283;52.330;9.772;2023-07-13T05:47:49;620.87;;;408.80;;
6499;SDS011;3283;52.330;9.772;2023-07-13T05:50:14;635.03;;;452.80;;
6499;SDS011;3283;52.330;9.772;2023-07-13T05:52:40;621.17;;;424.23;;
6499;SDS011;3283;52.330;9.772;2023-07-13T05:55:05;628.70;;;462.57;;
6499;SDS011;3283;52.330;9.772;2023-07-13T05:57:31;636.57;;;467.63;;
6499;SDS011;3283;52.330;9.772;2023-07-13T05:59:56;628.07;;;450.67;;
6499;SDS011;3283;52.330;9.772;2023-07-13T06:02:22;630.57;;;461.33;;
6499;SDS011;3283;52.330;9.772;2023-07-13T06:04:47;627.57;;;426.40;;
6499;SDS011;3283;52.330;9.772;2023-07-13T06:07:13;629.27;;;446.70;;
6499;SDS011;3283;52.330;9.772;2023-07-13T06:09:38;629.87;;;461.30;;
6499;SDS011;3283;52.330;9.772;2023-07-13T06:12:03;623.17;;;425.07;;
6499;SDS011;3283;52.330;9.772;2023-07-13T06:14:29;626.67;;;420.50;;
6499;SDS011;3283;52.330;9.772;2023-07-13T06:16:55;634.70;;;474.23;;
6499;SDS011;3283;52.330;9.772;2023-07-13T06:19:20;625.90;;;432.67;;
6499;SDS011;3283;52.330;9.772;2023-07-13T06:21:45;632.50;;;477.50;;
6499;SDS011;3283;52.330;9.772;2023-07-13T06:24:11;632.80;;;456.80;;
6499;SDS011;3283;52.330;9.772;2023-07-13T06:26:36;634.63;;;489.83;;
6499;SDS011;3283;52.330;9.772;2023-07-13T06:29:01;639.87;;;500.10;;
6499;SDS011;3283;52.330;9.772;2023-07-13T06:31:27;634.53;;;489.30;;
6499;SDS011;3283;52.330;9.772;2023-07-13T06:33:52;636.07;;;463.47;;
6499;SDS011;3283;52.330;9.772;2023-07-13T06:36:17;637.03;;;498.33;;
6499;SDS011;3283;52.330;9.772;2023-07-13T06:38:43;641.77;;;508.13;;
6499;SDS011;3283;52.330;9.772;2023-07-13T06:41:08;629.70;;;462.20;;
6499;SDS011;3283;52.330;9.772;2023-07-13T06:43:34;631.77;;;467.00;;
6499;SDS011;3283;52.330;9.772;2023-07-13T06:45:59;651.23;;;510.70;;
6499;SDS011;3283;52.330;9.772;2023-07-13T06:48:25;641.43;;;478.93;;
6499;SDS011;3283;52.330;9.772;2023-07-13T06:50:51;643.30;;;507.03;;
6499;SDS011;3283;52.330;9.772;2023-07-13T06:53:18;633.10;;;474.50;;
6499;SDS011;3283;52.330;9.772;2023-07-13T06:55:44;641.57;;;503.07;;
6499;SDS011;3283;52.330;9.772;2023-07-13T06:58:10;627.13;;;456.50;;
6499;SDS011;3283;52.330;9.772;2023-07-13T07:00:35;639.33;;;490.17;;
6499;SDS011;3283;52.330;9.772;2023-07-13T07:03:01;636.57;;;476.33;;
6499;SDS011;3283;52.330;9.772;2023-07-13T07:05:26;626.20;;;422.97;;
6499;SDS011;3283;52.330;9.772;2023-07-13T07:07:53;635.83;;;457.93;;
6499;SDS011;3283;52.330;9.772;2023-07-13T07:10:20;617.07;;;394.43;;
6499;SDS011;3283;52.330;9.772;2023-07-13T07:12:46;634.63;;;460.63;;
6499;SDS011;3283;52.330;9.772;2023-07-13T07:15:11;629.80;;;415.60;;
6499;SDS011;3283;52.330;9.772;2023-07-13T07:17:37;635.10;;;441.17;;
6499;SDS011;3283;52.330;9.772;2023-07-13T07:20:02;637.77;;;482.00;;
6499;SDS011;3283;52.330;9.772;2023-07-13T07:22:29;631.53;;;459.53;;
6499;SDS011;3283;52.330;9.772;2023-07-13T07:24:55;634.33;;;471.37;;
6499;SDS011;3283;52.330;9.772;2023-07-13T07:27:21;646.17;;;512.87;;
6499;SDS011;3283;52.330;9.772;2023-07-13T07:29:47;641.10;;;487.63;;
6499;SDS011;3283;52.330;9.772;2023-07-13T07:32:12;638.73;;;495.97;;
6499;SDS011;3283;52.330;9.772;2023-07-13T07:34:37;644.60;;;522.57;;
6499;SDS011;3283;52.330;9.772;2023-07-13T07:37:03;647.30;;;537.90;;
6499;SDS011;3283;52.330;9.772;2023-07-13T07:39:29;637.17;;;495.47;;
6499;SDS011;3283;52.330;9.772;2023-07-13T07:41:54;647.20;;;533.30;;
6499;SDS011;3283;52.330;9.772;2023-07-13T07:44:19;653.87;;;543.00;;
6499;SDS011;3283;52.330;9.772;2023-07-13T07:46:45;650.67;;;544.07;;
6499;SDS011;3283;52.330;9.772;2023-07-13T07:49:10;643.13;;;505.77;;
6499;SDS011;3283;52.330;9.772;2023-07-13T07:51:36;642.43;;;514.80;;
6499;SDS011;3283;52.330;9.772;2023-07-13T07:54:03;646.03;;;535.30;;
6499;SDS011;3283;52.330;9.772;2023-07-13T07:56:29;650.23;;;533.30;;
6499;SDS011;3283;52.330;9.772;2023-07-13T07:58:54;643.33;;;506.33;;
6499;SDS011;3283;52.330;9.772;2023-07-13T08:01:20;650.13;;;554.57;;
6499;SDS011;3283;52.330;9.772;2023-07-13T08:03:45;647.67;;;545.77;;
6499;SDS011;3283;52.330;9.772;2023-07-13T08:06:11;640.93;;;510.37;;
6499;SDS011;3283;52.330;9.772;2023-07-13T08:08:36;647.30;;;540.97;;
6499;SDS011;3283;52.330;9.772;2023-07-13T08:11:02;643.40;;;513.03;;
6499;SDS011;3283;52.330;9.772;2023-07-13T08:13:32;646.10;;;536.20;;
6499;SDS011;3283;52.330;9.772;2023-07-13T08:15:57;646.70;;;521.03;;
6499;SDS011;3283;52.330;9.772;2023-07-13T08:18:23;649.83;;;554.70;;
6499;SDS011;3283;52.330;9.772;2023-07-13T08:20:49;637.77;;;501.27;;
6499;SDS011;3283;52.330;9.772;2023-07-13T08:23:14;639.30;;;521.07;;
6499;SDS011;3283;52.330;9.772;2023-07-13T08:25:41;641.97;;;497.90;;
6499;SDS011;3283;52.330;9.772;2023-07-13T08:28:07;641.33;;;495.40;;
6499;SDS011;3283;52.330;9.772;2023-07-13T08:30:33;642.27;;;512.07;;
6499;SDS011;3283;52.330;9.772;2023-07-13T08:32:58;648.80;;;533.77;;
6499;SDS011;3283;52.330;9.772;2023-07-13T08:35:23;638.30;;;501.37;;
6499;SDS011;3283;52.330;9.772;2023-07-13T08:37:50;647.03;;;523.50;;
6499;SDS011;3283;52.330;9.772;2023-07-13T08:40:16;646.33;;;509.80;;
6499;SDS011;3283;52.330;9.772;2023-07-13T08:42:45;640.77;;;501.10;;
6499;SDS011;3283;52.330;9.772;2023-07-13T08:45:33;635.47;;;471.13;;
6499;SDS011;3283;52.330;9.772;2023-07-13T08:53:19;649.10;;;526.50;;
6499;SDS011;3283;52.330;9.772;2023-07-13T08:55:57;646.10;;;531.53;;
6499;SDS011;3283;52.330;9.772;2023-07-13T08:58:25;647.67;;;544.83;;
6499;SDS011;3283;52.330;9.772;2023-07-13T09:06:55;646.17;;;533.17;;
6499;SDS011;3283;52.330;9.772;2023-07-13T09:15:04;642.90;;;497.20;;
6499;SDS011;3283;52.330;9.772;2023-07-13T09:17:46;645.63;;;501.97;;
6499;SDS011;3283;52.330;9.772;2023-07-13T09:22:43;651.53;;;539.03;;
6499;SDS011;3283;52.330;9.772;2023-07-13T09:25:23;655.97;;;553.87;;
6499;SDS011;3283;52.330;9.772;2023-07-13T09:27:55;655.50;;;552.60;;
6499;SDS011;3283;52.330;9.772;2023-07-13T09:30:37;649.17;;;537.57;;
6499;SDS011;3283;52.330;9.772;2023-07-13T09:33:12;648.20;;;534.13;;
6499;SDS011;3283;52.330;9.772;2023-07-13T09:35:39;647.40;;;517.07;;
6499;SDS011;3283;52.330;9.772;2023-07-13T09:38:15;654.73;;;556.33;;
6499;SDS011;3283;52.330;9.772;2023-07-13T09:44:01;641.20;;;508.13;;
6499;SDS011;3283;52.330;9.772;2023-07-13T09:46:27;642.53;;;508.97;;
6499;SDS011;3283;52.330;9.772;2023-07-13T09:48:52;657.63;;;550.87;;
6499;SDS011;3283;52.330;9.772;2023-07-13T09:51:18;648.23;;;532.30;;
6499;SDS011;3283;52.330;9.772;2023-07-13T09:53:43;648.40;;;543.17;;
6499;SDS011;3283;52.330;9.772;2023-07-13T09:56:19;646.80;;;513.20;;
6499;SDS011;3283;52.330;9.772;2023-07-13T09:58:58;650.87;;;521.53;;
6499;SDS011;3283;52.330;9.772;2023-07-13T10:01:34;654.60;;;554.33;;
6499;SDS011;3283;52.330;9.772;2023-07-13T10:04:12;652.37;;;523.30;;
6499;SDS011;3283;52.330;9.772;2023-07-13T10:06:38;657.63;;;571.13;;
6499;SDS011;3283;52.330;9.772;2023-07-13T10:09:08;652.90;;;544.40;;
6499;SDS011;3283;52.330;9.772;2023-07-13T10:11:34;654.87;;;574.70;;
6499;SDS011;3283;52.330;9.772;2023-07-13T10:14:02;659.23;;;578.93;;
6499;SDS011;3283;52.330;9.772;2023-07-13T10:16:41;679.40;;;605.67;;
6499;SDS011;3283;52.330;9.772;2023-07-13T10:19:17;659.40;;;565.37;;
6499;SDS011;3283;52.330;9.772;2023-07-13T10:21:53;647.67;;;517.90;;
6499;SDS011;3283;52.330;9.772;2023-07-13T10:24:21;654.37;;;559.93;;
6499;SDS011;3283;52.330;9.772;2023-07-13T10:26:58;650.03;;;528.63;;
6499;SDS011;3283;52.330;9.772;2023-07-13T10:32:24;657.53;;;562.30;;
6499;SDS011;3283;52.330;9.772;2023-07-13T10:34:50;655.77;;;542.90;;
6499;SDS011;3283;52.330;9.772;2023-07-13T10:37:21;650.10;;;530.67;;
6499;SDS011;3283;52.330;9.772;2023-07-13T10:39:50;645.47;;;528.03;;
6499;SDS011;3283;52.330;9.772;2023-07-13T10:42:23;647.77;;;538.93;;
6499;SDS011;3283;52.330;9.772;2023-07-13T10:44:53;661.03;;;587.93;;
6499;SDS011;3283;52.330;9.772;2023-07-13T10:47:18;659.00;;;571.33;;
6499;SDS011;3283;52.330;9.772;2023-07-13T10:49:44;655.77;;;561.47;;
6499;SDS011;3283;52.330;9.772;2023-07-13T10:58:00;661.47;;;586.80;;
6499;SDS011;3283;52.330;9.772;2023-07-13T11:00:53;682.97;;;608.97;;
6499;SDS011;3283;52.330;9.772;2023-07-13T11:03:23;705.80;;;631.87;;
6499;SDS011;3283;52.330;9.772;2023-07-13T11:06:03;671.47;;;597.30;;
6499;SDS011;3283;52.330;9.772;2023-07-13T11:08:53;681.47;;;607.73;;
6499;SDS011;3283;52.330;9.772;2023-07-13T11:18:44;679.27;;;605.90;;
6499;SDS011;3283;52.330;9.772;2023-07-13T11:21:15;669.70;;;595.77;;
6499;SDS011;3283;52.330;9.772;2023-07-13T11:23:43;655.50;;;579.70;;
6499;SDS011;3283;52.330;9.772;2023-07-13T11:29:12;695.03;;;620.97;;
6499;SDS011;3283;52.330;9.772;2023-07-13T11:31:40;657.10;;;582.60;;
6499;SDS011;3283;52.330;9.772;2023-07-13T11:34:21;717.87;;;643.73;;
6499;SDS011;3283;52.330;9.772;2023-07-13T11:36:52;715.03;;;640.33;;
6499;SDS011;3283;52.330;9.772;2023-07-13T11:39:19;675.40;;;602.20;;
6499;SDS011;3283;52.330;9.772;2023-07-13T11:41:52;666.67;;;593.37;;
6499;SDS011;3283;52.330;9.772;2023-07-13T11:44:22;668.63;;;595.03;;
6499;SDS011;3283;52.330;9.772;2023-07-13T11:46:50;669.60;;;596.13;;
6499;SDS011;3283;52.330;9.772;2023-07-13T11:49:20;677.87;;;604.03;;
6499;SDS011;3283;52.330;9.772;2023-07-13T11:51:48;694.40;;;620.20;;
6499;SDS011;3283;52.330;9.772;2023-07-13T11:56:55;738.33;;;663.40;;
6499;SDS011;3283;52.330;9.772;2023-07-13T11:59:27;710.13;;;636.30;;
6499;SDS011;3283;52.330;9.772;2023-07-13T12:01:55;755.33;;;680.17;;
6499;SDS011;3283;52.330;9.772;2023-07-13T12:04:23;718.10;;;643.97;;
6499;SDS011;3283;52.330;9.772;2023-07-13T12:06:54;687.87;;;613.53;;
6499;SDS011;3283;52.330;9.772;2023-07-13T12:09:21;711.07;;;636.67;;
6499;SDS011;3283;52.330;9.772;2023-07-13T12:11:50;710.90;;;636.50;;
6499;SDS011;3283;52.330;9.772;2023-07-13T12:14:16;773.80;;;697.43;;
6499;SDS011;3283;52.330;9.772;2023-07-13T12:16:44;775.87;;;700.23;;
6499;SDS011;3283;52.330;9.772;2023-07-13T12:19:18;741.30;;;666.07;;
6499;SDS011;3283;52.330;9.772;2023-07-13T12:21:46;792.10;;;715.60;;
6499;SDS011;3283;52.330;9.772;2023-07-13T12:24:16;723.27;;;648.83;;
6499;SDS011;3283;52.330;9.772;2023-07-13T12:26:43;785.60;;;709.10;;
6499;SDS011;3283;52.330;9.772;2023-07-13T12:29:11;725.27;;;650.60;;
6499;SDS011;3283;52.330;9.772;2023-07-13T12:31:41;716.33;;;641.97;;
6499;SDS011;3283;52.330;9.772;2023-07-13T12:34:13;709.10;;;634.73;;
6499;SDS011;3283;52.330;9.772;2023-07-13T12:36:45;704.50;;;630.57;;
6499;SDS011;3283;52.330;9.772;2023-07-13T12:39:17;747.40;;;672.50;;
6499;SDS011;3283;52.330;9.772;2023-07-13T12:44:53;701.87;;;628.07;;
6499;SDS011;3283;52.330;9.772;2023-07-13T12:47:21;753.20;;;678.17;;
6499;SDS011;3283;52.330;9.772;2023-07-13T12:49:50;772.90;;;697.80;;
6499;SDS011;3283;52.330;9.772;2023-07-13T12:52:21;781.47;;;706.07;;
6499;SDS011;3283;52.330;9.772;2023-07-13T12:54:58;768.13;;;692.60;;
6499;SDS011;3283;52.330;9.772;2023-07-13T12:58:02;732.37;;;657.63;;
6499;SDS011;3283;52.330;9.772;2023-07-13T13:00:32;725.73;;;651.53;;
6499;SDS011;3283;52.330;9.772;2023-07-13T13:03:21;716.23;;;641.67;;
6499;SDS011;3283;52.330;9.772;2023-07-13T13:05:47;756.93;;;681.53;;
6499;SDS011;3283;52.330;9.772;2023-07-13T13:08:12;703.00;;;627.90;;
6499;SDS011;3283;52.330;9.772;2023-07-13T13:10:38;716.47;;;642.23;;
6499;SDS011;3283;52.330;9.772;2023-07-13T13:13:04;714.30;;;639.90;;
6499;SDS011;3283;52.330;9.772;2023-07-13T13:15:29;676.33;;;602.37;;
6499;SDS011;3283;52.330;9.772;2023-07-13T13:17:55;652.60;;;535.93;;
6499;SDS011;3283;52.330;9.772;2023-07-13T13:20:21;644.60;;;505.53;;
6499;SDS011;3283;52.330;9.772;2023-07-13T13:22:48;656.03;;;533.33;;
6499;SDS011;3283;52.330;9.772;2023-07-13T13:25:14;649.93;;;506.93;;
6499;SDS011;3283;52.330;9.772;2023-07-13T13:27:43;651.97;;;496.23;;
6499;SDS011;3283;52.330;9.772;2023-07-13T13:30:13;640.77;;;426.63;;
6499;SDS011;3283;52.330;9.772;2023-07-13T13:32:40;632.03;;;396.10;;
6499;SDS011;3283;52.330;9.772;2023-07-13T13:35:17;631.43;;;424.77;;
6499;SDS011;3283;52.330;9.772;2023-07-13T13:37:45;636.93;;;434.43;;
6499;SDS011;3283;52.330;9.772;2023-07-13T13:40:16;624.57;;;404.47;;
6499;SDS011;3283;52.330;9.772;2023-07-13T17:01:24;610.00;;;363.73;;
6499;SDS011;3283;52.330;9.772;2023-07-13T17:03:49;618.83;;;384.53;;
6499;SDS011;3283;52.330;9.772;2023-07-13T17:06:20;616.23;;;358.03;;
6499;SDS011;3283;52.330;9.772;2023-07-13T17:08:48;624.07;;;408.20;;
